createdAt,value
2023-03-05T00:01:14.640Z,2.08
2023-03-05T00:03:41.484Z,2.47
2023-03-05T00:06:08.395Z,2.60
2023-03-05T00:08:35.267Z,1.88
2023-03-05T00:11:04.921Z,2.55
2023-03-05T00:13:31.910Z,1.80
2023-03-05T00:15:58.718Z,1.90
2023-03-05T00:18:25.515Z,1.90
2023-03-05T00:20:52.028Z,2.00
2023-03-05T00:23:18.484Z,2.20
2023-03-05T00:25:46.668Z,2.15
2023-03-05T00:28:13.667Z,2.50
2023-03-05T00:30:40.172Z,2.22
2023-03-05T00:33:06.974Z,2.25
2023-03-05T00:35:45.961Z,2.05
2023-03-05T00:38:13.531Z,2.05
2023-03-05T00:40:41.457Z,2.22
2023-03-05T00:43:08.663Z,2.25
2023-03-05T00:45:35.201Z,2.42
2023-03-05T00:48:02.340Z,2.05
2023-03-05T00:50:29.007Z,2.17
2023-03-05T00:52:55.688Z,2.35
2023-03-05T00:55:22.325Z,2.30
2023-03-05T00:57:48.810Z,1.92
2023-03-05T01:00:16.387Z,2.25
2023-03-05T01:02:43.317Z,2.30
2023-03-05T01:05:14.122Z,2.25
2023-03-05T01:07:41.182Z,2.03
2023-03-05T01:10:08.739Z,1.92
2023-03-05T01:12:35.287Z,2.05
2023-03-05T01:15:02.289Z,1.80
2023-03-05T01:17:28.789Z,2.20
2023-03-05T01:19:55.694Z,2.17
2023-03-05T01:22:22.409Z,2.20
2023-03-05T01:24:48.908Z,2.40
2023-03-05T01:27:15.355Z,2.50
2023-03-05T01:29:41.863Z,2.50
2023-03-05T01:32:08.610Z,2.42
2023-03-05T01:34:37.293Z,2.50
2023-03-05T01:37:04.044Z,2.10
2023-03-05T01:39:30.959Z,2.30
2023-03-05T01:41:57.460Z,1.85
2023-03-05T01:44:27.251Z,1.67
2023-03-05T01:46:53.668Z,1.95
2023-03-05T01:49:24.665Z,2.00
2023-03-05T01:51:51.248Z,2.13
2023-03-05T01:54:20.722Z,1.65
2023-03-05T01:56:49.975Z,1.83
2023-03-05T01:59:17.510Z,2.67
2023-03-05T02:01:47.904Z,2.05
2023-03-05T02:04:17.883Z,1.88
2023-03-05T02:06:45.387Z,1.92
2023-03-05T02:09:12.328Z,2.15
2023-03-05T02:11:40.016Z,1.80
2023-03-05T02:14:09.922Z,2.13
2023-03-05T02:16:37.959Z,1.83
2023-03-05T02:19:07.470Z,1.80
2023-03-05T02:21:48.499Z,1.98
2023-03-05T02:24:17.678Z,1.70
2023-03-05T02:26:45.130Z,2.47
2023-03-05T02:29:17.372Z,1.80
2023-03-05T02:31:44.009Z,1.95
2023-03-05T02:34:10.532Z,2.35
2023-03-05T02:36:37.000Z,2.03
2023-03-05T02:39:04.300Z,1.88
2023-03-05T02:41:30.769Z,2.38
2023-03-05T02:43:57.288Z,2.30
2023-03-05T02:46:23.887Z,1.60
2023-03-05T02:48:50.277Z,2.17
2023-03-05T02:51:16.784Z,1.92
2023-03-05T02:53:43.408Z,1.83
2023-03-05T02:56:09.837Z,1.90
2023-03-05T02:58:36.399Z,1.77
2023-03-05T03:01:03.053Z,1.98
2023-03-05T03:03:29.688Z,2.95
2023-03-05T03:05:56.209Z,2.13
2023-03-05T03:08:22.753Z,2.67
2023-03-05T03:10:49.208Z,2.35
2023-03-05T03:13:15.655Z,2.33
2023-03-05T03:15:42.523Z,3.05
2023-03-05T03:18:09.105Z,3.53
2023-03-05T03:20:39.163Z,2.75
2023-03-05T03:23:06.473Z,2.30
2023-03-05T03:25:33.113Z,3.05
2023-03-05T03:27:59.724Z,2.95
2023-03-05T03:30:26.580Z,2.97
2023-03-05T03:32:53.633Z,2.60
2023-03-05T03:35:20.330Z,2.75
2023-03-05T03:37:47.624Z,2.95
2023-03-05T03:40:14.168Z,2.88
2023-03-05T03:42:40.607Z,3.22
2023-03-05T03:45:07.750Z,3.47
2023-03-05T03:47:34.247Z,3.20
2023-03-05T03:50:00.736Z,3.00
2023-03-05T03:52:27.510Z,3.38
2023-03-05T03:54:55.655Z,3.17
2023-03-05T03:57:22.189Z,3.17
2023-03-05T03:59:50.341Z,3.40
2023-03-05T04:02:17.008Z,3.25
2023-03-05T04:04:43.844Z,3.10
2023-03-05T04:07:10.489Z,2.60
2023-03-05T04:09:36.936Z,3.10
2023-03-05T04:12:03.558Z,2.80
2023-03-05T04:14:30.092Z,3.35
2023-03-05T04:16:56.487Z,2.90
2023-03-05T04:19:23.219Z,2.35
2023-03-05T04:21:49.838Z,3.20
2023-03-05T04:24:16.319Z,2.75
2023-03-05T04:26:42.798Z,2.60
2023-03-05T04:29:09.347Z,2.88
2023-03-05T04:31:35.756Z,2.70
2023-03-05T04:34:02.362Z,2.78
2023-03-05T04:36:29.190Z,2.63
2023-03-05T04:38:55.676Z,2.05
2023-03-05T04:41:22.476Z,2.35
2023-03-05T04:43:48.961Z,1.88
2023-03-05T04:46:15.520Z,2.80
2023-03-05T04:48:41.993Z,1.90
2023-03-05T04:51:08.553Z,2.40
2023-03-05T04:53:35.976Z,2.28
2023-03-05T04:56:02.432Z,1.95
2023-03-05T04:58:29.023Z,2.28
2023-03-05T05:01:00.686Z,1.80
2023-03-05T05:03:27.110Z,1.75
2023-03-05T05:05:58.851Z,2.05
2023-03-05T05:08:25.807Z,2.00
2023-03-05T05:11:03.419Z,1.92
2023-03-05T05:13:31.008Z,1.92
2023-03-05T05:15:58.082Z,2.20
2023-03-05T05:18:25.695Z,1.75
2023-03-05T05:20:52.668Z,2.15
2023-03-05T05:23:19.385Z,1.83
2023-03-05T05:25:45.858Z,2.08
2023-03-05T05:28:12.909Z,1.60
2023-03-05T05:30:39.360Z,2.03
2023-03-05T05:33:05.885Z,1.80
2023-03-05T05:35:32.398Z,2.10
2023-03-05T05:37:58.886Z,1.63
2023-03-05T05:40:25.411Z,1.55
2023-03-05T05:42:51.817Z,1.67
2023-03-05T05:45:18.425Z,2.28
2023-03-05T05:47:44.908Z,1.90
2023-03-05T05:50:12.035Z,1.70
2023-03-05T05:52:38.489Z,1.95
2023-03-05T05:55:05.431Z,2.00
2023-03-05T05:57:31.822Z,2.17
2023-03-05T05:59:58.260Z,1.85
2023-03-05T06:02:24.673Z,2.30
2023-03-05T06:04:51.228Z,2.15
2023-03-05T06:07:17.652Z,1.90
2023-03-05T06:09:44.398Z,2.00
2023-03-05T06:12:11.293Z,1.92
2023-03-05T06:14:37.890Z,1.70
2023-03-05T06:17:04.425Z,2.55
2023-03-05T06:19:30.860Z,1.70
2023-03-05T06:21:57.530Z,1.60
2023-03-05T06:24:24.052Z,2.00
2023-03-05T06:26:50.481Z,1.40
2023-03-05T06:29:17.000Z,1.45
2023-03-05T06:31:43.617Z,1.60
2023-03-05T06:34:10.745Z,1.65
2023-03-05T06:36:40.359Z,2.55
2023-03-05T06:39:06.931Z,1.70
2023-03-05T06:41:33.377Z,1.90
2023-03-05T06:44:02.326Z,2.72
2023-03-05T06:46:31.829Z,2.00
2023-03-05T06:49:00.478Z,1.77
2023-03-05T06:51:32.584Z,2.28
2023-03-05T06:54:04.853Z,1.83
2023-03-05T06:56:31.924Z,1.75
2023-03-05T06:58:59.165Z,1.63
2023-03-05T07:01:26.131Z,1.88
2023-03-05T07:03:54.171Z,1.70
2023-03-05T07:06:22.361Z,2.08
2023-03-05T07:08:49.464Z,2.00
2023-03-05T07:11:19.620Z,1.90
2023-03-05T07:13:50.023Z,1.80
2023-03-05T07:16:19.826Z,2.30
2023-03-05T07:18:46.412Z,1.92
2023-03-05T07:21:18.330Z,2.13
2023-03-05T07:23:44.897Z,2.00
2023-03-05T07:26:11.687Z,2.00
2023-03-05T07:28:38.794Z,2.10
2023-03-05T07:31:08.451Z,2.00
2023-03-05T07:33:37.059Z,3.15
2023-03-05T07:36:05.134Z,2.22
2023-03-05T07:38:32.253Z,2.20
2023-03-05T07:41:10.783Z,2.22
2023-03-05T07:43:37.576Z,2.33
2023-03-05T07:46:09.462Z,2.55
2023-03-05T07:48:36.214Z,2.33
2023-03-05T07:51:04.588Z,2.58
2023-03-05T07:53:31.167Z,2.08
2023-03-05T07:55:57.701Z,2.40
2023-03-05T07:58:24.996Z,2.08
2023-03-05T08:00:51.680Z,1.95
2023-03-05T08:03:18.472Z,1.90
2023-03-05T08:05:45.398Z,2.20
2023-03-05T08:08:11.899Z,2.03
2023-03-05T08:10:38.618Z,2.03
2023-03-05T08:13:05.654Z,2.08
2023-03-05T08:15:32.149Z,2.53
2023-03-05T08:17:59.392Z,2.22
2023-03-05T08:20:26.139Z,2.50
2023-03-05T08:22:52.694Z,2.90
2023-03-05T08:25:19.735Z,2.20
2023-03-05T08:27:47.274Z,2.45
2023-03-05T08:30:17.709Z,2.30
2023-03-05T08:32:44.271Z,2.38
2023-03-05T08:35:10.963Z,2.72
2023-03-05T08:37:37.461Z,2.40
2023-03-05T08:40:05.254Z,2.03
2023-03-05T08:42:31.619Z,1.90
2023-03-05T08:44:58.016Z,1.92
2023-03-05T08:47:26.567Z,2.13
2023-03-05T08:49:55.572Z,1.58
2023-03-05T08:52:22.587Z,1.83
2023-03-05T08:54:49.104Z,1.60
2023-03-05T08:57:15.692Z,1.52
2023-03-05T08:59:42.088Z,1.95
2023-03-05T09:02:11.445Z,1.73
2023-03-05T09:04:38.197Z,2.05
2023-03-05T09:07:05.062Z,1.50
2023-03-05T09:09:33.192Z,1.42
2023-03-05T09:12:00.589Z,1.30
2023-03-05T09:14:28.527Z,1.00
2023-03-05T09:16:56.379Z,1.10
2023-03-05T09:19:22.829Z,1.27
2023-03-05T09:21:49.268Z,1.48
2023-03-05T09:24:15.784Z,1.10
2023-03-05T09:26:42.407Z,1.17
2023-03-05T09:29:09.236Z,1.20
2023-03-05T09:31:37.419Z,1.23
2023-03-05T09:34:04.926Z,1.52
2023-03-05T09:36:31.617Z,1.00
2023-03-05T09:38:58.611Z,1.27
2023-03-05T09:41:49.861Z,1.33
2023-03-05T09:44:52.193Z,1.35
2023-03-05T09:47:18.552Z,1.10
2023-03-05T09:50:04.190Z,1.23
2023-03-05T09:52:54.727Z,1.52
2023-03-05T09:55:29.434Z,1.63
2023-03-05T09:58:05.960Z,2.20
2023-03-05T10:00:41.118Z,1.30
2023-03-05T10:03:18.373Z,1.45
2023-03-05T10:06:06.494Z,1.80
2023-03-05T10:09:11.452Z,1.33
2023-03-05T10:11:41.253Z,1.40
2023-03-05T10:14:13.829Z,1.20
2023-03-05T10:16:42.920Z,1.40
2023-03-05T10:19:26.273Z,1.60
2023-03-05T10:22:33.280Z,1.85
2023-03-05T10:25:26.345Z,1.88
2023-03-05T10:28:01.329Z,1.98
2023-03-05T10:30:56.093Z,1.65
2023-03-05T10:33:34.890Z,1.42
2023-03-05T10:36:21.579Z,2.03
2023-03-05T10:39:19.168Z,1.80
2023-03-05T10:42:10.984Z,1.30
2023-03-05T10:44:52.187Z,1.38
2023-03-05T10:47:27.846Z,1.65
2023-03-05T10:49:57.165Z,1.98
2023-03-05T10:52:35.325Z,1.50
2023-03-05T10:55:01.950Z,1.98
2023-03-05T10:57:31.681Z,1.40
2023-03-05T11:00:13.555Z,1.40
2023-03-05T11:02:56.896Z,1.67
2023-03-05T11:05:38.658Z,1.10
2023-03-05T11:08:23.831Z,1.10
2023-03-05T11:11:35.601Z,1.33
2023-03-05T11:14:03.890Z,1.20
2023-03-05T11:16:45.367Z,1.10
2023-03-05T11:19:14.883Z,1.02
2023-03-05T11:21:42.138Z,1.30
2023-03-05T11:24:14.878Z,1.35
2023-03-05T11:26:52.855Z,1.40
2023-03-05T11:29:25.645Z,1.25
2023-03-05T11:31:53.140Z,1.25
2023-03-05T11:34:19.574Z,1.00
2023-03-05T11:36:55.630Z,1.15
2023-03-05T11:39:25.131Z,1.00
2023-03-05T11:41:56.027Z,1.02
2023-03-05T11:44:25.985Z,1.30
2023-03-05T11:47:11.086Z,0.95
2023-03-05T11:49:43.284Z,0.80
2023-03-05T11:52:24.991Z,1.00
2023-03-05T11:55:04.246Z,1.30
2023-03-05T11:57:41.709Z,1.00
2023-03-05T12:00:12.956Z,1.27
2023-03-05T12:02:41.641Z,1.33
2023-03-05T12:07:41.465Z,0.90
2023-03-05T12:10:16.519Z,1.25
2023-03-05T12:13:06.284Z,0.90
2023-03-05T12:15:47.756Z,1.23
2023-03-05T12:18:46.540Z,1.10
2023-03-05T12:21:28.286Z,0.98
2023-03-05T12:24:01.371Z,0.98
2023-03-05T12:26:59.557Z,1.23
2023-03-05T12:29:49.545Z,1.20
2023-03-05T12:32:21.965Z,1.50
2023-03-05T12:34:58.334Z,1.27
2023-03-05T12:37:24.884Z,1.20
2023-03-05T12:39:57.274Z,1.23
2023-03-05T12:42:29.804Z,1.42
2023-03-05T12:45:15.886Z,1.10
2023-03-05T12:47:46.824Z,1.58
2023-03-05T12:50:28.491Z,1.40
2023-03-05T12:52:59.148Z,1.67
2023-03-05T12:55:37.983Z,1.50
2023-03-05T12:58:15.172Z,1.27
2023-03-05T13:00:49.291Z,1.25
2023-03-05T13:03:24.068Z,0.90
2023-03-05T13:05:54.340Z,1.77
2023-03-05T13:08:27.038Z,2.22
2023-03-05T13:11:02.867Z,1.40
2023-03-05T13:13:34.852Z,1.02
2023-03-05T13:16:02.054Z,1.00
2023-03-05T13:18:30.736Z,0.90
2023-03-05T13:21:18.196Z,0.98
2023-03-05T13:23:57.581Z,1.00
2023-03-05T13:26:38.100Z,1.20
2023-03-05T13:29:22.137Z,1.10
2023-03-05T13:31:57.456Z,1.23
2023-03-05T13:34:46.861Z,0.90
2023-03-05T13:37:24.338Z,1.00
2023-03-05T13:39:55.199Z,1.00
2023-03-05T13:42:31.401Z,1.10
2023-03-05T13:45:00.252Z,1.10
2023-03-05T13:47:29.744Z,1.23
2023-03-05T13:50:07.919Z,1.05
2023-03-05T13:52:38.846Z,1.17
2023-03-05T13:55:13.894Z,1.10
2023-03-05T13:57:47.713Z,1.17
2023-03-05T14:00:38.788Z,1.30
2023-03-05T14:03:22.252Z,0.98
2023-03-05T14:05:50.172Z,1.10
2023-03-05T14:08:22.134Z,1.27
2023-03-05T14:10:50.393Z,1.30
2023-03-05T14:13:27.095Z,0.98
2023-03-05T14:16:28.065Z,1.13
2023-03-05T14:18:59.925Z,1.10
2023-03-05T14:21:42.951Z,1.08
2023-03-05T14:24:19.575Z,1.00
2023-03-05T14:26:59.330Z,1.20
2023-03-05T14:29:46.882Z,1.05
2023-03-05T14:32:33.162Z,1.33
2023-03-05T14:35:01.949Z,1.30
2023-03-05T14:40:05.655Z,0.75
2023-03-05T14:42:51.483Z,1.00
2023-03-05T14:45:26.961Z,1.05
2023-03-05T14:47:55.214Z,1.05
2023-03-05T14:50:27.505Z,1.50
2023-03-05T14:53:00.224Z,1.27
2023-03-05T14:55:33.471Z,1.00
2023-03-05T14:58:04.432Z,0.80
2023-03-05T15:00:31.579Z,0.80
2023-03-05T15:02:58.355Z,1.27
2023-03-05T15:05:25.284Z,0.93
2023-03-05T15:07:52.361Z,0.90
2023-03-05T15:10:22.310Z,1.10
2023-03-05T15:12:50.543Z,0.80
2023-03-05T15:15:18.043Z,1.15
2023-03-05T15:17:50.789Z,1.17
2023-03-05T15:20:29.117Z,1.15
2023-03-05T15:22:55.978Z,1.38
2023-03-05T15:25:24.261Z,0.93
2023-03-05T15:27:50.941Z,0.98
2023-03-05T15:30:30.594Z,1.08
2023-03-05T15:33:00.154Z,1.40
2023-03-05T15:35:26.710Z,1.40
2023-03-05T15:37:53.552Z,1.20
2023-03-05T15:40:21.164Z,1.38
2023-03-05T15:42:48.263Z,1.40
2023-03-05T15:45:15.459Z,1.85
2023-03-05T15:47:42.004Z,1.92
2023-03-05T15:50:10.153Z,1.80
2023-03-05T15:52:36.680Z,2.10
2023-03-05T15:55:04.623Z,1.95
2023-03-05T15:57:35.986Z,2.00
2023-03-05T16:00:06.162Z,2.03
2023-03-05T16:02:32.695Z,2.60
2023-03-05T16:04:59.183Z,2.88
2023-03-05T16:07:26.196Z,2.00
2023-03-05T16:09:53.762Z,2.45
2023-03-05T16:12:28.193Z,2.05
2023-03-05T16:14:55.352Z,2.03
2023-03-05T16:17:23.655Z,2.10
2023-03-05T16:19:53.897Z,2.58
2023-03-05T16:22:20.336Z,2.60
2023-03-05T16:24:46.820Z,2.30
2023-03-05T16:27:13.400Z,2.45
2023-03-05T16:29:39.795Z,2.67
2023-03-05T16:32:06.344Z,2.65
2023-03-05T16:34:34.498Z,2.78
2023-03-05T16:37:04.291Z,3.20
2023-03-05T16:39:30.794Z,3.20
2023-03-05T16:41:58.115Z,3.28
2023-03-05T16:44:24.869Z,3.92
2023-03-05T16:46:53.726Z,3.50
2023-03-05T16:49:21.394Z,3.60
2023-03-05T16:51:48.374Z,3.00
2023-03-05T16:54:15.110Z,2.83
2023-03-05T16:56:41.705Z,3.35
2023-03-05T16:59:08.169Z,3.38
2023-03-05T17:01:34.593Z,2.90
2023-03-05T17:04:02.076Z,3.97
2023-03-05T17:06:31.582Z,3.92
2023-03-05T17:08:59.111Z,3.50
2023-03-05T17:11:25.894Z,2.97
2023-03-05T17:13:52.493Z,2.92
2023-03-05T17:16:20.154Z,3.20
2023-03-05T17:18:47.633Z,2.80
2023-03-05T17:21:15.009Z,3.17
2023-03-05T17:23:41.490Z,3.30
2023-03-05T17:26:15.093Z,3.28
2023-03-05T17:28:41.680Z,3.45
2023-03-05T17:31:08.210Z,3.53
2023-03-05T17:33:36.052Z,2.70
2023-03-05T17:36:02.853Z,4.13
2023-03-05T17:38:29.734Z,3.95
2023-03-05T17:40:56.380Z,3.95
2023-03-05T17:43:23.450Z,4.22
2023-03-05T17:45:49.957Z,3.90
2023-03-05T17:48:16.660Z,4.82
2023-03-05T17:50:44.875Z,4.10
2023-03-05T17:53:11.520Z,4.18
2023-03-05T17:55:39.023Z,4.13
2023-03-05T17:58:05.457Z,4.18
2023-03-05T18:00:32.129Z,3.88
2023-03-05T18:02:59.309Z,3.88
2023-03-05T18:05:26.696Z,4.32
2023-03-05T18:07:53.407Z,3.85
2023-03-05T18:10:21.662Z,4.20
2023-03-05T18:12:49.115Z,4.10
2023-03-05T18:15:17.955Z,4.65
2023-03-05T18:17:44.581Z,4.38
2023-03-05T18:20:27.606Z,4.00
2023-03-05T18:22:54.471Z,4.30
2023-03-05T18:25:21.960Z,4.05
2023-03-05T18:27:48.482Z,4.18
2023-03-05T18:30:15.042Z,2.45
2023-03-05T18:32:41.441Z,2.42
2023-03-05T18:35:08.377Z,2.90
2023-03-05T18:37:38.104Z,2.85
2023-03-05T18:40:09.457Z,3.30
2023-03-05T18:42:36.939Z,3.70
2023-03-05T18:45:10.108Z,3.33
2023-03-05T18:47:38.104Z,4.13
2023-03-05T18:50:06.210Z,4.65
2023-03-05T18:52:32.637Z,3.50
2023-03-05T18:54:59.114Z,3.60
2023-03-05T18:57:25.713Z,3.95
2023-03-05T18:59:52.341Z,3.95
2023-03-05T19:02:18.800Z,4.13
2023-03-05T19:04:45.241Z,4.13
2023-03-05T19:07:11.740Z,4.00
2023-03-05T19:10:02.149Z,3.60
2023-03-05T19:12:33.036Z,3.03
2023-03-05T19:14:59.795Z,3.65
2023-03-05T19:17:26.316Z,3.03
2023-03-05T19:19:54.646Z,3.05
2023-03-05T19:22:21.921Z,2.97
2023-03-05T19:24:48.369Z,3.00
2023-03-05T19:27:15.031Z,3.50
2023-03-05T19:29:42.776Z,3.42
2023-03-05T19:32:13.801Z,3.50
2023-03-05T19:34:40.693Z,3.33
2023-03-05T19:37:07.365Z,3.72
2023-03-05T19:39:34.531Z,3.80
2023-03-05T19:42:01.066Z,4.22
2023-03-05T19:44:27.722Z,5.57
2023-03-05T19:46:54.197Z,5.22
2023-03-05T19:49:21.067Z,4.80
2023-03-05T19:51:48.719Z,5.10
2023-03-05T19:54:17.658Z,4.30
2023-03-05T19:56:45.862Z,4.85
2023-03-05T19:59:16.243Z,4.90
2023-03-05T20:01:42.884Z,3.92
2023-03-05T20:04:12.311Z,3.65
2023-03-05T20:06:38.878Z,3.85
2023-03-05T20:09:07.612Z,3.50
2023-03-05T20:11:34.791Z,2.88
2023-03-05T20:14:01.290Z,3.20
2023-03-05T20:16:30.573Z,3.47
2023-03-05T20:18:59.092Z,3.53
2023-03-05T20:21:29.105Z,3.72
2023-03-05T20:23:58.521Z,3.47
2023-03-05T20:26:26.608Z,3.40
2023-03-05T20:28:54.261Z,3.40
2023-03-05T20:31:22.883Z,3.63
2023-03-05T20:33:50.260Z,3.00
2023-03-05T20:36:17.088Z,2.70
2023-03-05T20:38:45.756Z,3.10
2023-03-05T20:43:44.688Z,3.35
2023-03-05T20:46:26.127Z,4.13
2023-03-05T20:48:56.412Z,4.78
2023-03-05T20:51:25.460Z,6.70
2023-03-05T20:53:54.182Z,6.90
2023-03-05T20:58:46.937Z,4.05
2023-03-05T21:01:13.496Z,3.42
2023-03-05T21:03:40.944Z,3.22
2023-03-05T21:06:07.789Z,3.50
2023-03-05T21:08:34.417Z,3.03
2023-03-05T21:11:05.418Z,2.92
2023-03-05T21:13:32.118Z,4.00
2023-03-05T21:15:58.862Z,3.40
2023-03-05T21:18:28.115Z,3.90
2023-03-05T21:20:54.735Z,3.20
2023-03-05T21:23:21.303Z,3.40
2023-03-05T21:25:47.988Z,2.85
2023-03-05T21:28:16.485Z,3.83
2023-03-05T21:30:46.203Z,3.58
2023-03-05T21:33:15.681Z,3.67
2023-03-05T21:35:42.227Z,2.85
2023-03-05T21:38:10.062Z,3.35
2023-03-05T21:40:43.544Z,3.20
2023-03-05T21:43:12.185Z,2.50
2023-03-05T21:45:39.893Z,2.80
2023-03-05T21:48:07.298Z,2.58
2023-03-05T21:50:34.591Z,2.55
2023-03-05T21:53:02.476Z,2.83
2023-03-05T21:56:42.173Z,2.50
2023-03-05T21:59:08.687Z,2.22
2023-03-05T22:01:35.204Z,2.42
2023-03-05T22:04:01.948Z,2.80
2023-03-05T22:06:28.368Z,2.75
2023-03-05T22:08:54.812Z,2.17
2023-03-05T22:11:22.519Z,2.13
2023-03-05T22:13:49.195Z,2.10
2023-03-05T22:16:24.367Z,2.30
2023-03-05T22:18:50.911Z,2.15
2023-03-05T22:21:23.396Z,2.28
2023-03-05T22:23:50.006Z,2.30
2023-03-05T22:26:16.563Z,2.22
2023-03-05T22:28:42.967Z,2.13
2023-03-05T22:31:10.487Z,2.60
2023-03-05T22:33:37.696Z,2.42
2023-03-05T22:36:10.181Z,2.22
2023-03-05T22:38:36.661Z,2.25
2023-03-05T22:41:07.835Z,1.98
2023-03-05T22:43:34.508Z,3.00
2023-03-05T22:46:08.246Z,2.58
2023-03-05T22:48:34.726Z,2.70
2023-03-05T22:51:01.169Z,2.03
2023-03-05T22:53:27.557Z,2.60
2023-03-05T22:55:54.099Z,2.75
2023-03-05T22:58:20.493Z,3.00
2023-03-05T23:00:47.153Z,2.70
2023-03-05T23:03:13.889Z,2.80
2023-03-05T23:05:40.461Z,2.20
2023-03-05T23:08:08.125Z,2.42
2023-03-05T23:10:34.921Z,2.60
2023-03-05T23:13:01.570Z,2.53
2023-03-05T23:15:33.695Z,2.47
2023-03-05T23:18:00.964Z,2.20
2023-03-05T23:20:31.124Z,2.58
2023-03-05T23:22:57.705Z,2.60
2023-03-05T23:25:27.456Z,2.72
2023-03-05T23:27:54.578Z,2.08
2023-03-05T23:30:25.291Z,2.38
2023-03-05T23:32:57.409Z,2.38
2023-03-05T23:35:35.588Z,4.03
2023-03-05T23:38:04.920Z,2.53
2023-03-05T23:40:37.065Z,2.53
2023-03-05T23:43:04.067Z,2.42
2023-03-05T23:45:31.378Z,2.42
2023-03-05T23:47:58.285Z,2.67
2023-03-05T23:50:33.340Z,2.33
2023-03-05T23:53:02.219Z,2.20
2023-03-05T23:55:37.556Z,2.70
2023-03-05T23:58:04.073Z,2.50
